sensor_id;sensor_type;location;lat;lon;timestamp;pressure;altitude;pressure_sealevel;temperature;humidity
61814;BME280;57055;-35.296;149.168;2023-06-22T00:00:30;95340.86;;;2.88;68.27
61814;BME280;57055;-35.296;149.168;2023-06-22T00:02:59;95333.52;;;3.01;67.75
61814;BME280;57055;-35.296;149.168;2023-06-22T00:05:28;95341.19;;;3.10;67.86
61814;BME280;57055;-35.296;149.168;2023-06-22T00:07:57;95333.88;;;3.19;67.47
61814;BME280;57055;-35.296;149.168;2023-06-22T00:10:26;95324.02;;;3.28;67.34
61814;BME280;57055;-35.296;149.168;2023-06-22T00:12:55;95306.90;;;3.42;67.35
61814;BME280;57055;-35.296;149.168;2023-06-22T00:15:24;95303.69;;;3.49;67.63
61814;BME280;57055;-35.296;149.168;2023-06-22T00:17:53;95294.14;;;3.57;67.84
61814;BME280;57055;-35.296;149.168;2023-06-22T00:20:22;95289.24;;;3.66;67.54
61814;BME280;57055;-35.296;149.168;2023-06-22T00:22:51;95305.36;;;3.56;67.50
61814;BME280;57055;-35.296;149.168;2023-06-22T00:25:20;95307.83;;;3.62;67.62
61814;BME280;57055;-35.296;149.168;2023-06-22T00:27:49;95315.14;;;3.84;67.39
61814;BME280;57055;-35.296;149.168;2023-06-22T00:30:19;95325.11;;;4.20;67.49
61814;BME280;57055;-35.296;149.168;2023-06-22T00:32:48;95326.41;;;3.83;67.17
61814;BME280;57055;-35.296;149.168;2023-06-22T00:35:17;95307.88;;;3.92;66.88
61814;BME280;57055;-35.296;149.168;2023-06-22T00:37:46;95305.71;;;4.02;66.81
61814;BME280;57055;-35.296;149.168;2023-06-22T00:40:15;95289.57;;;4.06;66.46
61814;BME280;57055;-35.296;149.168;2023-06-22T00:42:44;95269.51;;;4.17;66.23
61814;BME280;57055;-35.296;149.168;2023-06-22T00:45:13;95261.67;;;4.30;65.76
61814;BME280;57055;-35.296;149.168;2023-06-22T00:47:42;95275.07;;;4.36;65.59
61814;BME280;57055;-35.296;149.168;2023-06-22T00:50:16;95270.65;;;4.44;65.56
61814;BME280;57055;-35.296;149.168;2023-06-22T00:52:47;95265.47;;;4.07;64.90
61814;BME280;57055;-35.296;149.168;2023-06-22T00:55:16;95264.11;;;4.60;63.65
61814;BME280;57055;-35.296;149.168;2023-06-22T00:57:46;95268.15;;;4.71;63.85
61814;BME280;57055;-35.296;149.168;2023-06-22T01:00:17;95265.57;;;4.82;64.30
61814;BME280;57055;-35.296;149.168;2023-06-22T01:02:47;95260.90;;;4.87;63.68
61814;BME280;57055;-35.296;149.168;2023-06-22T01:05:17;95256.73;;;4.82;63.37
61814;BME280;57055;-35.296;149.168;2023-06-22T01:07:55;95266.83;;;4.78;62.28
61814;BME280;57055;-35.296;149.168;2023-06-22T01:10:34;95259.78;;;4.78;61.20
61814;BME280;57055;-35.296;149.168;2023-06-22T01:13:11;95239.35;;;4.92;60.93
61814;BME280;57055;-35.296;149.168;2023-06-22T01:15:48;95228.17;;;4.73;60.27
61814;BME280;57055;-35.296;149.168;2023-06-22T01:18:19;95224.25;;;4.70;60.44
61814;BME280;57055;-35.296;149.168;2023-06-22T01:20:51;95218.20;;;4.68;59.83
61814;BME280;57055;-35.296;149.168;2023-06-22T01:23:29;95207.93;;;4.73;60.15
61814;BME280;57055;-35.296;149.168;2023-06-22T01:26:08;95194.83;;;4.34;60.54
61814;BME280;57055;-35.296;149.168;2023-06-22T01:28:45;95182.50;;;4.86;60.24
61814;BME280;57055;-35.296;149.168;2023-06-22T01:31:17;95178.45;;;4.82;60.04
61814;BME280;57055;-35.296;149.168;2023-06-22T01:33:50;95184.52;;;4.80;60.20
61814;BME280;57055;-35.296;149.168;2023-06-22T01:36:21;95185.44;;;4.79;59.88
61814;BME280;57055;-35.296;149.168;2023-06-22T01:38:51;95187.64;;;4.55;59.41
61814;BME280;57055;-35.296;149.168;2023-06-22T01:41:21;95181.07;;;4.82;59.49
61814;BME280;57055;-35.296;149.168;2023-06-22T01:43:51;95178.65;;;4.77;59.60
61814;BME280;57055;-35.296;149.168;2023-06-22T01:46:22;95165.47;;;4.52;59.54
61814;BME280;57055;-35.296;149.168;2023-06-22T01:48:52;95139.57;;;4.62;60.37
61814;BME280;57055;-35.296;149.168;2023-06-22T01:51:21;95127.71;;;4.59;60.86
61814;BME280;57055;-35.296;149.168;2023-06-22T01:53:50;95122.46;;;4.84;61.29
61814;BME280;57055;-35.296;149.168;2023-06-22T01:56:19;95138.81;;;4.62;62.02
61814;BME280;57055;-35.296;149.168;2023-06-22T01:58:55;95152.20;;;4.63;63.03
61814;BME280;57055;-35.296;149.168;2023-06-22T02:01:31;95149.18;;;4.58;63.60
61814;BME280;57055;-35.296;149.168;2023-06-22T02:04:06;95143.73;;;4.60;62.90
61814;BME280;57055;-35.296;149.168;2023-06-22T02:06:39;95136.00;;;4.53;63.42
61814;BME280;57055;-35.296;149.168;2023-06-22T02:09:14;95135.23;;;4.51;63.17
61814;BME280;57055;-35.296;149.168;2023-06-22T02:11:46;95127.89;;;4.56;63.10
61814;BME280;57055;-35.296;149.168;2023-06-22T02:14:17;95111.19;;;4.63;62.93
61814;BME280;57055;-35.296;149.168;2023-06-22T02:16:47;95107.19;;;4.62;62.60
61814;BME280;57055;-35.296;149.168;2023-06-22T02:19:16;95104.05;;;4.72;62.51
61814;BME280;57055;-35.296;149.168;2023-06-22T02:21:45;95091.32;;;5.00;62.86
61814;BME280;57055;-35.296;149.168;2023-06-22T02:24:14;95079.11;;;4.83;62.95
61814;BME280;57055;-35.296;149.168;2023-06-22T02:26:43;95056.08;;;4.24;62.26
61814;BME280;57055;-35.296;149.168;2023-06-22T02:29:12;95053.14;;;4.74;62.50
61814;BME280;57055;-35.296;149.168;2023-06-22T02:31:41;95051.05;;;4.82;62.59
61814;BME280;57055;-35.296;149.168;2023-06-22T02:34:10;95035.97;;;4.88;62.29
61814;BME280;57055;-35.296;149.168;2023-06-22T02:36:39;95044.52;;;5.01;62.37
61814;BME280;57055;-35.296;149.168;2023-06-22T02:39:08;95054.28;;;5.03;62.34
61814;BME280;57055;-35.296;149.168;2023-06-22T02:41:37;95055.81;;;5.15;62.46
61814;BME280;57055;-35.296;149.168;2023-06-22T02:44:06;95043.73;;;5.22;62.58
61814;BME280;57055;-35.296;149.168;2023-06-22T02:46:34;95043.01;;;5.29;62.66
61814;BME280;57055;-35.296;149.168;2023-06-22T02:49:04;95039.76;;;5.09;62.56
61814;BME280;57055;-35.296;149.168;2023-06-22T02:51:34;95030.85;;;5.08;62.40
61814;BME280;57055;-35.296;149.168;2023-06-22T02:54:03;95023.31;;;4.96;62.51
61814;BME280;57055;-35.296;149.168;2023-06-22T02:56:32;95030.18;;;5.03;62.47
61814;BME280;57055;-35.296;149.168;2023-06-22T02:59:00;95027.56;;;5.62;62.54
61814;BME280;57055;-35.296;149.168;2023-06-22T03:01:30;95021.14;;;5.26;62.34
61814;BME280;57055;-35.296;149.168;2023-06-22T03:03:59;95012.84;;;5.25;61.86
61814;BME280;57055;-35.296;149.168;2023-06-22T03:06:28;95010.84;;;5.47;61.61
61814;BME280;57055;-35.296;149.168;2023-06-22T03:08:59;95008.08;;;5.32;61.61
61814;BME280;57055;-35.296;149.168;2023-06-22T03:11:28;95004.13;;;5.38;61.93
61814;BME280;57055;-35.296;149.168;2023-06-22T03:13:57;94998.34;;;5.36;61.65
61814;BME280;57055;-35.296;149.168;2023-06-22T03:16:26;94998.04;;;5.37;61.33
61814;BME280;57055;-35.296;149.168;2023-06-22T03:18:56;94993.48;;;5.41;61.28
61814;BME280;57055;-35.296;149.168;2023-06-22T03:21:27;94993.86;;;5.65;61.04
61814;BME280;57055;-35.296;149.168;2023-06-22T03:23:56;94992.39;;;5.45;61.23
61814;BME280;57055;-35.296;149.168;2023-06-22T03:26:25;94992.05;;;5.50;61.07
61814;BME280;57055;-35.296;149.168;2023-06-22T03:28:53;94997.24;;;5.58;60.65
61814;BME280;57055;-35.296;149.168;2023-06-22T03:31:23;94996.16;;;5.58;60.68
61814;BME280;57055;-35.296;149.168;2023-06-22T03:33:51;95000.98;;;5.65;60.07
61814;BME280;57055;-35.296;149.168;2023-06-22T03:36:20;94998.71;;;5.74;60.24
61814;BME280;57055;-35.296;149.168;2023-06-22T03:38:50;94992.77;;;5.69;60.08
61814;BME280;57055;-35.296;149.168;2023-06-22T03:41:19;94983.52;;;5.70;59.96
61814;BME280;57055;-35.296;149.168;2023-06-22T03:43:47;94994.27;;;5.70;59.75
61814;BME280;57055;-35.296;149.168;2023-06-22T03:46:16;94997.13;;;5.66;60.16
61814;BME280;57055;-35.296;149.168;2023-06-22T03:48:45;94990.46;;;5.66;60.35
61814;BME280;57055;-35.296;149.168;2023-06-22T03:51:14;94982.34;;;5.66;60.36
61814;BME280;57055;-35.296;149.168;2023-06-22T03:53:43;94974.55;;;5.71;60.28
61814;BME280;57055;-35.296;149.168;2023-06-22T03:56:12;94968.93;;;5.46;60.06
61814;BME280;57055;-35.296;149.168;2023-06-22T03:58:40;94958.19;;;5.72;59.84
61814;BME280;57055;-35.296;149.168;2023-06-22T04:01:09;94954.51;;;5.70;59.67
61814;BME280;57055;-35.296;149.168;2023-06-22T04:03:38;94949.61;;;5.69;59.60
61814;BME280;57055;-35.296;149.168;2023-06-22T04:06:07;94956.30;;;5.68;59.70
61814;BME280;57055;-35.296;149.168;2023-06-22T04:08:36;94961.40;;;5.68;59.89
61814;BME280;57055;-35.296;149.168;2023-06-22T04:11:05;94958.50;;;5.89;59.87
61814;BME280;57055;-35.296;149.168;2023-06-22T04:13:33;94956.83;;;5.66;60.42
61814;BME280;57055;-35.296;149.168;2023-06-22T04:16:02;94949.70;;;5.39;60.41
61814;BME280;57055;-35.296;149.168;2023-06-22T04:18:31;94945.27;;;5.68;60.07
61814;BME280;57055;-35.296;149.168;2023-06-22T04:21:01;94940.69;;;5.92;59.94
61814;BME280;57055;-35.296;149.168;2023-06-22T04:23:30;94939.18;;;5.42;60.25
61814;BME280;57055;-35.296;149.168;2023-06-22T04:25:58;94944.85;;;5.75;60.57
61814;BME280;57055;-35.296;149.168;2023-06-22T04:28:27;94948.01;;;5.76;60.66
61814;BME280;57055;-35.296;149.168;2023-06-22T04:30:56;94944.14;;;5.72;60.09
61814;BME280;57055;-35.296;149.168;2023-06-22T04:33:25;94933.58;;;5.73;59.74
61814;BME280;57055;-35.296;149.168;2023-06-22T04:35:54;94931.30;;;5.75;59.30
61814;BME280;57055;-35.296;149.168;2023-06-22T04:38:23;94928.81;;;5.80;59.61
61814;BME280;57055;-35.296;149.168;2023-06-22T04:40:52;94926.07;;;5.58;59.46
61814;BME280;57055;-35.296;149.168;2023-06-22T04:43:21;94933.44;;;5.62;59.42
61814;BME280;57055;-35.296;149.168;2023-06-22T04:45:51;94932.73;;;5.90;59.52
61814;BME280;57055;-35.296;149.168;2023-06-22T04:48:19;94937.96;;;5.92;59.07
61814;BME280;57055;-35.296;149.168;2023-06-22T04:50:53;94931.76;;;5.92;58.29
61814;BME280;57055;-35.296;149.168;2023-06-22T04:53:22;94932.89;;;5.98;58.05
61814;BME280;57055;-35.296;149.168;2023-06-22T04:55:51;94932.50;;;5.98;58.26
61814;BME280;57055;-35.296;149.168;2023-06-22T04:58:21;94929.41;;;5.72;57.94
61814;BME280;57055;-35.296;149.168;2023-06-22T05:00:50;94922.29;;;6.02;57.96
61814;BME280;57055;-35.296;149.168;2023-06-22T05:03:19;94919.53;;;6.00;58.03
61814;BME280;57055;-35.296;149.168;2023-06-22T05:05:48;94910.67;;;5.96;57.98
61814;BME280;57055;-35.296;149.168;2023-06-22T05:08:17;94908.24;;;5.98;58.18
61814;BME280;57055;-35.296;149.168;2023-06-22T05:10:47;94910.87;;;5.97;58.49
61814;BME280;57055;-35.296;149.168;2023-06-22T05:13:16;94917.61;;;5.91;58.92
61814;BME280;57055;-35.296;149.168;2023-06-22T05:15:45;94923.32;;;5.87;59.00
61814;BME280;57055;-35.296;149.168;2023-06-22T05:18:13;94924.48;;;5.56;59.37
61814;BME280;57055;-35.296;149.168;2023-06-22T05:20:42;94922.50;;;5.84;59.63
61814;BME280;57055;-35.296;149.168;2023-06-22T05:23:11;94916.26;;;5.80;59.90
61814;BME280;57055;-35.296;149.168;2023-06-22T05:25:40;94916.92;;;5.74;60.13
61814;BME280;57055;-35.296;149.168;2023-06-22T05:28:10;94910.60;;;5.71;60.52
61814;BME280;57055;-35.296;149.168;2023-06-22T05:30:38;94910.07;;;5.44;60.45
61814;BME280;57055;-35.296;149.168;2023-06-22T05:33:07;94908.32;;;5.66;60.67
61814;BME280;57055;-35.296;149.168;2023-06-22T05:35:36;94898.26;;;5.57;60.94
61814;BME280;57055;-35.296;149.168;2023-06-22T05:38:05;94896.37;;;5.54;60.89
61814;BME280;57055;-35.296;149.168;2023-06-22T05:40:33;94898.04;;;5.52;61.17
61814;BME280;57055;-35.296;149.168;2023-06-22T05:43:02;94896.45;;;5.50;61.59
61814;BME280;57055;-35.296;149.168;2023-06-22T05:45:37;94896.68;;;5.50;61.64
61814;BME280;57055;-35.296;149.168;2023-06-22T05:48:06;94892.48;;;5.76;61.27
61814;BME280;57055;-35.296;149.168;2023-06-22T05:50:35;94885.37;;;5.49;61.02
61814;BME280;57055;-35.296;149.168;2023-06-22T05:53:04;94884.10;;;5.43;60.98
61814;BME280;57055;-35.296;149.168;2023-06-22T05:55:32;94880.68;;;5.62;61.52
61814;BME280;57055;-35.296;149.168;2023-06-22T05:58:01;94877.89;;;5.55;61.11
61814;BME280;57055;-35.296;149.168;2023-06-22T06:00:30;94874.01;;;5.32;60.83
61814;BME280;57055;-35.296;149.168;2023-06-22T06:02:59;94869.27;;;5.29;61.23
61814;BME280;57055;-35.296;149.168;2023-06-22T06:05:27;94865.85;;;5.25;61.71
61814;BME280;57055;-35.296;149.168;2023-06-22T06:07:56;94868.22;;;5.15;62.59
61814;BME280;57055;-35.296;149.168;2023-06-22T06:10:25;94877.47;;;5.10;63.08
61814;BME280;57055;-35.296;149.168;2023-06-22T06:12:55;94891.78;;;5.18;63.31
61814;BME280;57055;-35.296;149.168;2023-06-22T06:15:24;94878.35;;;5.63;64.07
61814;BME280;57055;-35.296;149.168;2023-06-22T06:17:53;94875.68;;;5.08;64.81
61814;BME280;57055;-35.296;149.168;2023-06-22T06:20:24;94882.41;;;5.57;64.08
61814;BME280;57055;-35.296;149.168;2023-06-22T06:22:53;94888.87;;;5.39;62.13
61814;BME280;57055;-35.296;149.168;2023-06-22T06:25:22;94891.52;;;5.30;63.21
61814;BME280;57055;-35.296;149.168;2023-06-22T06:27:51;94894.49;;;5.24;64.20
61814;BME280;57055;-35.296;149.168;2023-06-22T06:30:20;94892.13;;;4.84;65.35
61814;BME280;57055;-35.296;149.168;2023-06-22T06:32:50;94892.31;;;5.01;65.69
61814;BME280;57055;-35.296;149.168;2023-06-22T06:35:19;94885.96;;;5.21;66.66
61814;BME280;57055;-35.296;149.168;2023-06-22T06:37:50;94884.30;;;5.16;67.19
61814;BME280;57055;-35.296;149.168;2023-06-22T06:40:19;94876.98;;;4.86;68.31
61814;BME280;57055;-35.296;149.168;2023-06-22T06:42:48;94873.61;;;4.80;68.19
61814;BME280;57055;-35.296;149.168;2023-06-22T06:45:20;94868.71;;;5.04;68.82
61814;BME280;57055;-35.296;149.168;2023-06-22T06:47:49;94864.18;;;5.04;68.93
61814;BME280;57055;-35.296;149.168;2023-06-22T06:50:19;94867.94;;;4.57;68.50
61814;BME280;57055;-35.296;149.168;2023-06-22T06:52:47;94869.03;;;4.58;69.21
61814;BME280;57055;-35.296;149.168;2023-06-22T06:55:16;94854.20;;;4.70;69.11
61814;BME280;57055;-35.296;149.168;2023-06-22T06:57:45;94843.05;;;4.99;67.79
61814;BME280;57055;-35.296;149.168;2023-06-22T07:00:16;94847.60;;;4.97;68.86
61814;BME280;57055;-35.296;149.168;2023-06-22T07:02:45;94844.35;;;4.92;69.46
61814;BME280;57055;-35.296;149.168;2023-06-22T07:05:14;94843.74;;;4.86;70.07
61814;BME280;57055;-35.296;149.168;2023-06-22T07:07:43;94835.89;;;4.79;69.74
61814;BME280;57055;-35.296;149.168;2023-06-22T07:10:12;94835.95;;;4.48;70.03
61814;BME280;57055;-35.296;149.168;2023-06-22T07:12:41;94826.87;;;4.94;70.64
61814;BME280;57055;-35.296;149.168;2023-06-22T07:15:11;94820.01;;;4.71;70.96
61814;BME280;57055;-35.296;149.168;2023-06-22T07:17:40;94832.94;;;4.88;71.24
61814;BME280;57055;-35.296;149.168;2023-06-22T07:20:10;94833.61;;;4.63;71.52
61814;BME280;57055;-35.296;149.168;2023-06-22T07:22:39;94832.95;;;4.63;71.60
61814;BME280;57055;-35.296;149.168;2023-06-22T07:25:09;94826.04;;;4.59;71.88
61814;BME280;57055;-35.296;149.168;2023-06-22T07:27:39;94823.62;;;4.36;71.85
61814;BME280;57055;-35.296;149.168;2023-06-22T07:30:09;94823.64;;;4.66;71.83
61814;BME280;57055;-35.296;149.168;2023-06-22T07:32:39;94824.09;;;4.68;71.94
61814;BME280;57055;-35.296;149.168;2023-06-22T07:35:09;94823.15;;;4.43;72.14
61814;BME280;57055;-35.296;149.168;2023-06-22T07:37:38;94819.91;;;4.39;72.09
61814;BME280;57055;-35.296;149.168;2023-06-22T07:40:08;94811.69;;;4.62;72.48
61814;BME280;57055;-35.296;149.168;2023-06-22T07:42:37;94812.20;;;4.60;72.72
61814;BME280;57055;-35.296;149.168;2023-06-22T07:45:07;94816.35;;;4.59;73.17
61814;BME280;57055;-35.296;149.168;2023-06-22T07:47:36;94825.96;;;4.62;73.16
61814;BME280;57055;-35.296;149.168;2023-06-22T07:50:05;94821.14;;;4.63;73.30
61814;BME280;57055;-35.296;149.168;2023-06-22T07:52:34;94819.49;;;4.58;73.30
61814;BME280;57055;-35.296;149.168;2023-06-22T07:55:04;94821.20;;;4.54;73.51
61814;BME280;57055;-35.296;149.168;2023-06-22T07:57:33;94817.11;;;4.52;73.48
61814;BME280;57055;-35.296;149.168;2023-06-22T08:00:03;94815.07;;;4.52;73.50
61814;BME280;57055;-35.296;149.168;2023-06-22T08:02:34;94813.47;;;4.48;73.51
61814;BME280;57055;-35.296;149.168;2023-06-22T08:05:03;94813.88;;;4.43;73.52
61814;BME280;57055;-35.296;149.168;2023-06-22T08:07:32;94815.99;;;4.40;73.78
61814;BME280;57055;-35.296;149.168;2023-06-22T08:10:01;94812.78;;;4.40;74.19
61814;BME280;57055;-35.296;149.168;2023-06-22T08:12:30;94816.63;;;4.37;74.28
61814;BME280;57055;-35.296;149.168;2023-06-22T08:14:58;94814.13;;;4.43;74.34
61814;BME280;57055;-35.296;149.168;2023-06-22T08:17:28;94820.38;;;4.45;74.28
61814;BME280;57055;-35.296;149.168;2023-06-22T08:19:57;94817.74;;;4.16;74.18
61814;BME280;57055;-35.296;149.168;2023-06-22T08:22:26;94815.22;;;4.48;74.08
61814;BME280;57055;-35.296;149.168;2023-06-22T08:24:55;94816.50;;;4.45;74.13
61814;BME280;57055;-35.296;149.168;2023-06-22T08:27:24;94820.60;;;4.42;74.02
61814;BME280;57055;-35.296;149.168;2023-06-22T08:29:52;94814.44;;;4.40;73.77
61814;BME280;57055;-35.296;149.168;2023-06-22T08:32:21;94816.28;;;4.61;73.42
61814;BME280;57055;-35.296;149.168;2023-06-22T08:34:51;94814.68;;;4.60;73.74
61814;BME280;57055;-35.296;149.168;2023-06-22T08:37:19;94810.68;;;4.34;73.69
61814;BME280;57055;-35.296;149.168;2023-06-22T08:39:48;94802.58;;;4.32;73.68
61814;BME280;57055;-35.296;149.168;2023-06-22T08:42:17;94786.61;;;4.35;73.62
61814;BME280;57055;-35.296;149.168;2023-06-22T08:44:45;94780.52;;;4.32;73.56
61814;BME280;57055;-35.296;149.168;2023-06-22T08:47:14;94781.49;;;4.35;73.48
61814;BME280;57055;-35.296;149.168;2023-06-22T08:49:43;94787.04;;;4.32;73.67
61814;BME280;57055;-35.296;149.168;2023-06-22T08:52:12;94794.28;;;4.30;73.96
61814;BME280;57055;-35.296;149.168;2023-06-22T08:54:42;94787.03;;;4.23;74.11
61814;BME280;57055;-35.296;149.168;2023-06-22T08:57:11;94775.40;;;4.25;74.07
61814;BME280;57055;-35.296;149.168;2023-06-22T08:59:39;94773.29;;;4.30;73.86
61814;BME280;57055;-35.296;149.168;2023-06-22T09:02:08;94774.60;;;4.53;73.76
61814;BME280;57055;-35.296;149.168;2023-06-22T09:04:37;94780.05;;;4.28;73.92
61814;BME280;57055;-35.296;149.168;2023-06-22T09:07:06;94790.96;;;4.50;73.98
61814;BME280;57055;-35.296;149.168;2023-06-22T09:09:35;94786.75;;;4.25;73.97
61814;BME280;57055;-35.296;149.168;2023-06-22T09:12:05;94785.01;;;4.46;73.90
61814;BME280;57055;-35.296;149.168;2023-06-22T09:14:34;94783.98;;;4.46;74.04
61814;BME280;57055;-35.296;149.168;2023-06-22T09:17:03;94783.40;;;4.21;74.07
61814;BME280;57055;-35.296;149.168;2023-06-22T09:19:32;94784.23;;;4.44;74.06
61814;BME280;57055;-35.296;149.168;2023-06-22T09:22:01;94787.62;;;4.22;74.19
61814;BME280;57055;-35.296;149.168;2023-06-22T09:24:30;94796.63;;;4.23;74.43
61814;BME280;57055;-35.296;149.168;2023-06-22T09:26:59;94789.80;;;4.24;74.49
61814;BME280;57055;-35.296;149.168;2023-06-22T09:29:28;94776.95;;;4.26;74.37
61814;BME280;57055;-35.296;149.168;2023-06-22T09:31:57;94776.66;;;4.33;74.29
61814;BME280;57055;-35.296;149.168;2023-06-22T09:34:26;94782.99;;;4.34;74.59
61814;BME280;57055;-35.296;149.168;2023-06-22T09:36:55;94786.08;;;4.35;74.69
61814;BME280;57055;-35.296;149.168;2023-06-22T09:39:24;94776.03;;;4.60;74.51
61814;BME280;57055;-35.296;149.168;2023-06-22T09:41:53;94769.03;;;4.40;74.25
61814;BME280;57055;-35.296;149.168;2023-06-22T09:44:21;94766.81;;;4.61;74.48
61814;BME280;57055;-35.296;149.168;2023-06-22T09:46:50;94768.72;;;4.61;74.93
61814;BME280;57055;-35.296;149.168;2023-06-22T09:49:19;94776.34;;;4.44;74.97
61814;BME280;57055;-35.296;149.168;2023-06-22T09:51:48;94761.60;;;4.46;74.75
61814;BME280;57055;-35.296;149.168;2023-06-22T09:54:17;94752.82;;;4.45;74.49
61814;BME280;57055;-35.296;149.168;2023-06-22T09:56:46;94758.31;;;4.42;74.87
61814;BME280;57055;-35.296;149.168;2023-06-22T09:59:15;94756.53;;;4.46;74.79
61814;BME280;57055;-35.296;149.168;2023-06-22T10:01:43;94764.42;;;4.44;74.88
61814;BME280;57055;-35.296;149.168;2023-06-22T10:04:13;94771.70;;;4.44;74.80
61814;BME280;57055;-35.296;149.168;2023-06-22T10:06:42;94789.49;;;4.46;74.70
61814;BME280;57055;-35.296;149.168;2023-06-22T10:09:11;94775.51;;;4.45;74.75
61814;BME280;57055;-35.296;149.168;2023-06-22T10:11:39;94767.59;;;4.41;74.65
61814;BME280;57055;-35.296;149.168;2023-06-22T10:14:08;94774.53;;;4.62;75.05
61814;BME280;57055;-35.296;149.168;2023-06-22T10:16:37;94767.75;;;4.60;74.92
61814;BME280;57055;-35.296;149.168;2023-06-22T10:19:06;94761.37;;;4.38;74.73
61814;BME280;57055;-35.296;149.168;2023-06-22T10:21:36;94754.59;;;4.60;74.53
61814;BME280;57055;-35.296;149.168;2023-06-22T10:24:05;94748.26;;;4.59;74.58
61814;BME280;57055;-35.296;149.168;2023-06-22T10:26:34;94753.37;;;4.35;74.67
61814;BME280;57055;-35.296;149.168;2023-06-22T10:29:04;94749.55;;;4.35;74.72
61814;BME280;57055;-35.296;149.168;2023-06-22T10:31:33;94739.72;;;4.32;74.75
61814;BME280;57055;-35.296;149.168;2023-06-22T10:34:03;94731.48;;;4.29;74.91
61814;BME280;57055;-35.296;149.168;2023-06-22T10:36:32;94724.95;;;4.32;74.91
61814;BME280;57055;-35.296;149.168;2023-06-22T10:39:01;94714.54;;;4.53;74.90
61814;BME280;57055;-35.296;149.168;2023-06-22T10:41:30;94693.62;;;4.24;75.05
61814;BME280;57055;-35.296;149.168;2023-06-22T10:43:59;94696.34;;;4.30;74.96
61814;BME280;57055;-35.296;149.168;2023-06-22T10:46:27;94701.10;;;4.52;75.01
61814;BME280;57055;-35.296;149.168;2023-06-22T10:48:56;94697.35;;;4.30;74.96
61814;BME280;57055;-35.296;149.168;2023-06-22T10:51:25;94704.17;;;4.28;75.03
61814;BME280;57055;-35.296;149.168;2023-06-22T10:53:54;94703.50;;;4.26;74.92
61814;BME280;57055;-35.296;149.168;2023-06-22T10:56:22;94709.95;;;4.24;74.87
61814;BME280;57055;-35.296;149.168;2023-06-22T10:58:51;94710.85;;;4.25;74.57
61814;BME280;57055;-35.296;149.168;2023-06-22T11:01:21;94709.97;;;4.47;74.54
61814;BME280;57055;-35.296;149.168;2023-06-22T11:03:50;94708.24;;;4.21;74.47
61814;BME280;57055;-35.296;149.168;2023-06-22T11:06:19;94710.73;;;4.21;74.43
61814;BME280;57055;-35.296;149.168;2023-06-22T11:08:49;94705.83;;;4.19;74.63
61814;BME280;57055;-35.296;149.168;2023-06-22T11:11:18;94696.93;;;4.43;74.67
61814;BME280;57055;-35.296;149.168;2023-06-22T11:13:46;94690.37;;;4.17;74.68
61814;BME280;57055;-35.296;149.168;2023-06-22T11:16:15;94679.16;;;4.18;74.75
61814;BME280;57055;-35.296;149.168;2023-06-22T11:18:44;94663.78;;;4.14;74.85
61814;BME280;57055;-35.296;149.168;2023-06-22T11:21:14;94653.54;;;4.13;74.74
61814;BME280;57055;-35.296;149.168;2023-06-22T11:23:44;94627.78;;;4.16;74.31
61814;BME280;57055;-35.296;149.168;2023-06-22T11:26:13;94629.96;;;4.19;74.07
61814;BME280;57055;-35.296;149.168;2023-06-22T11:28:41;94621.62;;;4.15;74.45
61814;BME280;57055;-35.296;149.168;2023-06-22T11:31:10;94599.48;;;4.34;74.34
61814;BME280;57055;-35.296;149.168;2023-06-22T11:33:39;94574.83;;;4.10;74.39
61814;BME280;57055;-35.296;149.168;2023-06-22T11:36:08;94541.66;;;4.06;74.31
61814;BME280;57055;-35.296;149.168;2023-06-22T11:38:38;94502.01;;;4.29;74.20
61814;BME280;57055;-35.296;149.168;2023-06-22T11:41:08;94506.43;;;3.94;74.12
61814;BME280;57055;-35.296;149.168;2023-06-22T11:43:38;94551.17;;;3.99;74.10
61814;BME280;57055;-35.296;149.168;2023-06-22T11:46:07;94572.57;;;4.28;74.17
61814;BME280;57055;-35.296;149.168;2023-06-22T11:48:36;94561.68;;;4.28;74.16
61814;BME280;57055;-35.296;149.168;2023-06-22T11:51:05;94565.93;;;4.27;74.28
61814;BME280;57055;-35.296;149.168;2023-06-22T11:53:33;94571.97;;;4.04;74.33
61814;BME280;57055;-35.296;149.168;2023-06-22T11:56:02;94561.64;;;4.29;74.25
61814;BME280;57055;-35.296;149.168;2023-06-22T11:58:32;94557.55;;;4.05;74.34
61814;BME280;57055;-35.296;149.168;2023-06-22T12:01:00;94551.56;;;4.29;74.37
61814;BME280;57055;-35.296;149.168;2023-06-22T12:03:29;94544.04;;;4.29;74.34
61814;BME280;57055;-35.296;149.168;2023-06-22T12:05:59;94549.56;;;4.29;74.33
61814;BME280;57055;-35.296;149.168;2023-06-22T12:08:28;94553.19;;;4.54;74.10
61814;BME280;57055;-35.296;149.168;2023-06-22T12:10:57;94551.99;;;4.11;74.17
61814;BME280;57055;-35.296;149.168;2023-06-22T12:13:26;94551.54;;;4.34;74.06
61814;BME280;57055;-35.296;149.168;2023-06-22T12:15:54;94542.11;;;4.09;74.05
61814;BME280;57055;-35.296;149.168;2023-06-22T12:18:23;94536.04;;;4.31;74.19
61814;BME280;57055;-35.296;149.168;2023-06-22T12:20:52;94513.42;;;4.06;74.22
61814;BME280;57055;-35.296;149.168;2023-06-22T12:23:21;94524.50;;;4.29;74.27
61814;BME280;57055;-35.296;149.168;2023-06-22T12:25:50;94537.62;;;4.10;74.46
61814;BME280;57055;-35.296;149.168;2023-06-22T12:28:20;94531.51;;;4.35;74.21
61814;BME280;57055;-35.296;149.168;2023-06-22T12:30:48;94525.33;;;4.12;74.30
61814;BME280;57055;-35.296;149.168;2023-06-22T12:33:17;94527.19;;;4.13;74.41
61814;BME280;57055;-35.296;149.168;2023-06-22T12:35:46;94522.83;;;4.10;74.63
61814;BME280;57055;-35.296;149.168;2023-06-22T12:38:15;94525.20;;;4.35;74.55
61814;BME280;57055;-35.296;149.168;2023-06-22T12:40:45;94524.84;;;4.14;74.62
61814;BME280;57055;-35.296;149.168;2023-06-22T12:43:14;94517.24;;;4.34;74.67
61814;BME280;57055;-35.296;149.168;2023-06-22T12:45:43;94526.88;;;4.12;74.74
61814;BME280;57055;-35.296;149.168;2023-06-22T12:48:12;94541.99;;;4.34;74.98
61814;BME280;57055;-35.296;149.168;2023-06-22T12:50:41;94551.33;;;4.13;74.95